Terminal Aerodrome Forecast
Issued by NWS

Home | Current Version | Previous Version | Graphics & Text | Print | Product List | Glossary On
Versions: 1 2 3 4 5 6 7 8 9 10 11 12 13 14 15 16 17 18 19 20 21 22 23 24
000
FTUS43 KLOT 200520
TAFGYY
TAF
KGYY 200520Z 2006/2106 VRB06KT P6SM SCT100 BKN250
     FM201100 19009KT P6SM VCTS SCT060CB BKN100
      TEMPO 2011/2014 35015G25KT 2SM TSRA SCT020 OVC040CB
     FM201400 26014G20KT P6SM SCT040 BKN250
     FM201700 28010KT P6SM BKN040
      TEMPO 2020/2022 36012KT 3SM TSRA BKN040CB
     FM202200 02009KT P6SM SCT040 BKN150
     FM210200 14005KT P6SM SCT150=

USA.gov is the U.S. government's official web portal to all federal, state and local government web resources and services.